createdAt,value
2023-01-22T00:01:19.824Z,80.17
2023-01-22T00:03:50.416Z,79.64
2023-01-22T00:06:17.574Z,79.77
2023-01-22T00:08:44.851Z,81.03
2023-01-22T00:11:12.451Z,80.72
2023-01-22T00:13:39.781Z,80.62
2023-01-22T00:16:07.564Z,81.32
2023-01-22T00:18:35.123Z,81.41
2023-01-22T00:21:02.291Z,81.50
2023-01-22T00:23:29.307Z,81.68
2023-01-22T00:26:12.855Z,81.62
2023-01-22T00:28:42.648Z,81.17
2023-01-22T00:31:12.040Z,81.63
2023-01-22T00:33:41.446Z,81.51
2023-01-22T00:36:11.272Z,82.08
2023-01-22T00:38:38.423Z,82.23
2023-01-22T00:41:10.335Z,82.23
2023-01-22T00:43:40.969Z,83.04
2023-01-22T00:46:09.961Z,82.61
2023-01-22T00:48:39.859Z,82.57
2023-01-22T00:51:09.919Z,82.84
2023-01-22T00:53:37.576Z,82.19
2023-01-22T00:56:06.014Z,81.48
2023-01-22T00:58:33.190Z,81.53
2023-01-22T01:01:03.847Z,81.30
2023-01-22T01:03:33.400Z,82.27
2023-01-22T01:06:07.591Z,81.80
2023-01-22T01:08:42.517Z,82.26
2023-01-22T01:11:22.861Z,82.73
2023-01-22T01:13:51.493Z,82.44
2023-01-22T01:16:31.897Z,82.19
2023-01-22T01:19:00.586Z,82.55
2023-01-22T01:21:28.701Z,82.58
2023-01-22T01:23:58.614Z,81.64
2023-01-22T01:26:26.213Z,81.33
2023-01-22T01:28:53.450Z,81.22
2023-01-22T01:31:22.659Z,81.31
2023-01-22T01:33:49.960Z,81.04
2023-01-22T01:36:46.315Z,81.67
2023-01-22T01:39:13.562Z,81.68
2023-01-22T01:41:40.673Z,81.16
2023-01-22T01:44:17.844Z,81.70
2023-01-22T01:46:48.848Z,82.23
2023-01-22T01:49:28.257Z,82.89
2023-01-22T01:52:00.177Z,82.61
2023-01-22T01:54:28.082Z,82.90
2023-01-22T01:57:00.996Z,82.36
2023-01-22T01:59:27.982Z,82.17
2023-01-22T02:01:55.940Z,82.20
2023-01-22T02:04:24.460Z,82.33
2023-01-22T02:06:51.425Z,81.65
2023-01-22T02:09:18.628Z,81.83
2023-01-22T02:11:45.684Z,81.30
2023-01-22T02:14:16.673Z,82.11
2023-01-22T02:16:43.749Z,82.01
2023-01-22T02:19:10.727Z,82.19
2023-01-22T02:21:44.715Z,82.62
2023-01-22T02:24:14.080Z,83.24
2023-01-22T02:26:42.302Z,83.38
2023-01-22T02:29:11.606Z,82.27
2023-01-22T02:31:40.282Z,82.62
2023-01-22T02:34:09.298Z,83.06
2023-01-22T02:36:37.620Z,82.60
2023-01-22T02:39:05.228Z,82.22
2023-01-22T02:41:35.373Z,81.79
2023-01-22T02:44:02.597Z,80.95
2023-01-22T02:46:30.643Z,81.61
2023-01-22T02:48:57.609Z,81.48
2023-01-22T02:51:26.771Z,81.01
2023-01-22T02:53:54.234Z,81.69
2023-01-22T02:56:21.551Z,81.86
2023-01-22T02:58:48.729Z,81.60
2023-01-22T03:01:21.647Z,80.19
2023-01-22T03:03:53.095Z,81.38
2023-01-22T03:06:25.177Z,81.12
2023-01-22T03:09:00.925Z,81.74
2023-01-22T03:11:30.677Z,81.03
2023-01-22T03:14:23.664Z,80.42
2023-01-22T03:17:12.040Z,81.18
2023-01-22T03:19:57.709Z,80.89
2023-01-22T03:22:24.889Z,80.53
2023-01-22T03:24:53.113Z,80.69
2023-01-22T03:27:24.516Z,81.01
2023-01-22T03:29:51.499Z,81.68
2023-01-22T03:32:20.048Z,81.35
2023-01-22T03:34:46.904Z,81.73
2023-01-22T03:37:14.500Z,81.26
2023-01-22T03:39:44.037Z,81.47
2023-01-22T03:42:17.279Z,81.34
2023-01-22T03:44:45.107Z,81.54
2023-01-22T03:47:12.327Z,82.68
2023-01-22T03:49:39.262Z,82.40
2023-01-22T03:52:06.473Z,82.24
2023-01-22T03:54:33.712Z,82.08
2023-01-22T03:57:03.497Z,82.34
2023-01-22T03:59:33.559Z,81.80
2023-01-22T04:02:03.560Z,82.19
2023-01-22T04:04:36.163Z,81.99
2023-01-22T04:07:02.984Z,83.00
2023-01-22T04:09:30.105Z,82.91
2023-01-22T04:11:58.408Z,83.83
2023-01-22T04:14:26.541Z,83.54
2023-01-22T04:17:00.609Z,83.12
2023-01-22T04:19:40.910Z,83.17
2023-01-22T04:22:13.220Z,83.01
2023-01-22T04:24:40.521Z,82.09
2023-01-22T04:27:07.697Z,82.35
2023-01-22T04:29:34.841Z,82.03
2023-01-22T04:32:04.186Z,81.19
2023-01-22T04:34:50.281Z,80.26
2023-01-22T04:37:23.487Z,80.32
2023-01-22T04:39:52.920Z,80.03
2023-01-22T04:42:21.164Z,79.56
2023-01-22T04:44:48.469Z,80.24
2023-01-22T04:47:15.912Z,80.27
2023-01-22T04:49:43.288Z,80.62
2023-01-22T04:52:13.910Z,81.48
2023-01-22T04:54:40.858Z,81.96
2023-01-22T04:57:08.051Z,82.15
2023-01-22T04:59:34.948Z,83.40
2023-01-22T05:02:02.963Z,82.95
2023-01-22T05:04:31.300Z,83.58
2023-01-22T05:06:58.370Z,83.18
2023-01-22T05:09:26.350Z,83.11
2023-01-22T05:11:57.385Z,82.98
2023-01-22T05:14:25.293Z,82.81
2023-01-22T05:16:52.258Z,81.99
2023-01-22T05:19:23.184Z,81.54
2023-01-22T05:21:50.348Z,81.90
2023-01-22T05:24:18.680Z,82.17
2023-01-22T05:26:46.206Z,82.02
2023-01-22T05:29:18.226Z,83.04
2023-01-22T05:31:57.998Z,82.75
2023-01-22T05:34:31.015Z,82.93
2023-01-22T05:37:00.797Z,82.77
2023-01-22T05:39:30.361Z,83.27
2023-01-22T05:41:59.712Z,83.94
2023-01-22T05:44:26.988Z,83.29
2023-01-22T05:46:55.411Z,83.31
2023-01-22T05:49:24.922Z,83.50
2023-01-22T05:51:55.644Z,83.31
2023-01-22T05:54:22.629Z,82.60
2023-01-22T05:56:50.784Z,82.76
2023-01-22T05:59:20.520Z,82.01
2023-01-22T06:02:00.893Z,81.69
2023-01-22T06:04:30.666Z,80.98
2023-01-22T06:07:06.956Z,81.11
2023-01-22T06:09:33.935Z,81.23
2023-01-22T06:12:00.954Z,81.78
2023-01-22T06:14:27.931Z,81.55
2023-01-22T06:16:57.556Z,82.81
2023-01-22T06:19:34.034Z,83.00
2023-01-22T06:22:01.436Z,83.38
2023-01-22T06:24:51.605Z,83.22
2023-01-22T06:27:24.281Z,83.24
2023-01-22T06:29:57.931Z,82.98
2023-01-22T06:32:26.257Z,82.72
2023-01-22T06:34:53.541Z,82.41
2023-01-22T06:37:22.022Z,82.27
2023-01-22T06:39:49.920Z,82.59
2023-01-22T06:42:26.615Z,83.11
2023-01-22T06:44:53.832Z,82.94
2023-01-22T06:47:23.797Z,82.97
2023-01-22T06:49:50.857Z,83.21
2023-01-22T06:52:20.968Z,82.97
2023-01-22T06:54:47.883Z,81.67
2023-01-22T06:57:14.913Z,83.11
2023-01-22T06:59:44.591Z,83.49
2023-01-22T07:02:18.823Z,83.04
2023-01-22T07:04:46.076Z,83.04
2023-01-22T07:07:14.543Z,82.90
2023-01-22T07:09:41.583Z,82.65
2023-01-22T07:12:08.904Z,82.09
2023-01-22T07:14:37.544Z,82.14
2023-01-22T07:17:05.057Z,82.06
2023-01-22T07:19:33.424Z,81.55
2023-01-22T07:22:00.321Z,81.87
2023-01-22T07:24:27.404Z,80.78
2023-01-22T07:26:54.239Z,80.83
2023-01-22T07:29:21.141Z,78.93
2023-01-22T07:31:49.759Z,77.15
2023-01-22T07:34:17.000Z,77.06
2023-01-22T07:36:44.077Z,75.98
2023-01-22T07:39:11.324Z,74.26
2023-01-22T07:41:38.366Z,73.12
2023-01-22T07:44:12.016Z,73.40
2023-01-22T07:46:41.831Z,73.02
2023-01-22T07:49:08.859Z,72.96
2023-01-22T07:51:35.852Z,72.77
2023-01-22T07:54:03.415Z,73.00
2023-01-22T07:56:30.508Z,72.90
2023-01-22T07:58:57.559Z,73.79
2023-01-22T08:01:24.543Z,73.46
2023-01-22T08:03:51.572Z,72.89
2023-01-22T08:06:22.425Z,72.56
2023-01-22T08:08:50.176Z,72.10
2023-01-22T08:11:17.266Z,72.78
2023-01-22T08:13:44.448Z,71.80
2023-01-22T08:16:11.673Z,71.63
2023-01-22T08:18:38.711Z,71.63
2023-01-22T08:21:06.136Z,69.44
2023-01-22T08:23:33.564Z,68.44
2023-01-22T08:26:01.967Z,70.05
2023-01-22T08:28:29.040Z,71.38
2023-01-22T08:31:01.266Z,72.40
2023-01-22T08:33:32.160Z,73.07
2023-01-22T08:36:04.573Z,73.45
2023-01-22T08:38:31.730Z,73.79
2023-01-22T08:41:02.187Z,73.15
2023-01-22T08:43:30.188Z,73.49
2023-01-22T08:45:57.408Z,73.78
2023-01-22T08:48:26.699Z,73.77
2023-01-22T08:50:53.821Z,73.77
2023-01-22T08:53:20.887Z,73.89
2023-01-22T08:55:54.221Z,74.59
2023-01-22T08:58:22.370Z,74.63
2023-01-22T09:00:49.629Z,74.26
2023-01-22T09:03:26.957Z,73.65
2023-01-22T09:05:54.584Z,73.77
2023-01-22T09:08:27.184Z,74.41
2023-01-22T09:10:54.188Z,73.56
2023-01-22T09:13:21.411Z,74.57
2023-01-22T09:15:50.939Z,74.47
2023-01-22T09:18:20.518Z,73.90
2023-01-22T09:20:50.857Z,74.15
2023-01-22T09:23:18.046Z,73.58
2023-01-22T09:25:45.151Z,73.66
2023-01-22T09:28:12.540Z,72.90
2023-01-22T09:30:41.366Z,72.83
2023-01-22T09:33:08.966Z,73.43
2023-01-22T09:35:36.161Z,73.49
2023-01-22T09:38:03.816Z,73.55
2023-01-22T09:40:42.483Z,73.13
2023-01-22T09:43:18.805Z,72.11
2023-01-22T09:45:51.317Z,72.18
2023-01-22T09:48:19.925Z,69.51
2023-01-22T09:50:51.072Z,68.81
2023-01-22T09:53:19.964Z,67.05
2023-01-22T09:55:50.367Z,66.81
2023-01-22T09:58:22.983Z,66.05
2023-01-22T10:01:04.711Z,65.13
2023-01-22T10:03:46.477Z,65.75
2023-01-22T10:06:24.992Z,64.79
2023-01-22T10:09:10.285Z,65.18
2023-01-22T10:11:40.997Z,64.14
2023-01-22T10:14:10.079Z,63.97
2023-01-22T10:16:37.509Z,63.64
2023-01-22T10:19:16.057Z,62.80
2023-01-22T10:21:49.522Z,63.67
2023-01-22T10:24:19.736Z,62.22
2023-01-22T10:26:54.495Z,63.00
2023-01-22T10:29:29.952Z,60.55
2023-01-22T10:31:59.985Z,61.54
2023-01-22T10:34:36.934Z,60.89
2023-01-22T10:37:14.697Z,61.49
2023-01-22T10:39:47.718Z,59.24
2023-01-22T10:42:25.850Z,52.31
2023-01-22T10:44:59.874Z,46.01
2023-01-22T10:47:29.252Z,42.93
2023-01-22T10:50:23.197Z,41.56
2023-01-22T10:52:53.873Z,42.43
2023-01-22T10:55:26.922Z,41.66
2023-01-22T10:58:05.180Z,40.67
2023-01-22T11:00:46.661Z,40.14
2023-01-22T11:03:23.412Z,39.37
2023-01-22T11:05:54.881Z,42.35
2023-01-22T11:08:32.341Z,41.28
2023-01-22T11:11:06.054Z,41.90
2023-01-22T11:13:36.021Z,42.70
2023-01-22T11:16:12.400Z,42.71
2023-01-22T11:18:42.976Z,41.64
2023-01-22T11:21:19.163Z,40.02
2023-01-22T11:24:05.271Z,39.54
2023-01-22T11:26:35.207Z,38.75
2023-01-22T11:29:36.455Z,38.35
2023-01-22T11:32:15.244Z,37.46
2023-01-22T11:35:20.061Z,37.37
2023-01-22T11:38:04.488Z,39.25
2023-01-22T11:40:33.722Z,37.76
2023-01-22T11:43:19.038Z,37.76
2023-01-22T11:46:05.245Z,37.37
2023-01-22T11:48:32.219Z,36.98
2023-01-22T11:51:08.221Z,37.00
2023-01-22T11:53:58.989Z,37.06
2023-01-22T11:56:44.624Z,36.84
2023-01-22T11:59:37.721Z,36.87
2023-01-22T12:02:38.239Z,36.17
2023-01-22T12:05:34.432Z,36.65
2023-01-22T12:08:28.737Z,37.18
2023-01-22T12:11:30.312Z,36.77
2023-01-22T12:14:19.409Z,36.23
2023-01-22T12:16:54.972Z,36.84
2023-01-22T12:19:34.318Z,37.10
2023-01-22T12:22:18.038Z,36.91
2023-01-22T12:24:50.699Z,36.48
2023-01-22T12:27:27.563Z,37.78
2023-01-22T12:30:32.135Z,36.97
2023-01-22T12:33:03.135Z,37.68
2023-01-22T12:35:32.170Z,37.55
2023-01-22T12:38:17.307Z,39.03
2023-01-22T12:41:11.522Z,39.00
2023-01-22T12:43:47.625Z,38.05
2023-01-22T12:46:27.024Z,36.44
2023-01-22T12:49:01.843Z,37.82
2023-01-22T12:51:41.110Z,39.29
2023-01-22T12:54:26.283Z,39.84
2023-01-22T12:57:23.086Z,40.00
2023-01-22T12:59:57.902Z,40.57
2023-01-22T13:02:24.923Z,40.46
2023-01-22T13:04:52.769Z,41.04
2023-01-22T13:07:25.641Z,42.49
2023-01-22T13:10:21.622Z,42.81
2023-01-22T13:12:51.329Z,43.38
2023-01-22T13:15:30.127Z,44.52
2023-01-22T13:18:15.928Z,44.34
2023-01-22T13:21:03.530Z,45.30
2023-01-22T13:23:34.296Z,45.22
2023-01-22T13:26:01.955Z,45.86
2023-01-22T13:28:29.150Z,46.16
2023-01-22T13:31:04.435Z,46.64
2023-01-22T13:33:31.979Z,46.08
2023-01-22T13:35:59.096Z,46.36
2023-01-22T13:38:32.364Z,46.76
2023-01-22T13:41:07.593Z,46.86
2023-01-22T13:43:35.735Z,47.04
2023-01-22T13:46:03.633Z,47.07
2023-01-22T13:48:30.892Z,48.81
2023-01-22T13:51:01.985Z,50.11
2023-01-22T13:53:31.970Z,49.45
2023-01-22T13:56:02.256Z,49.55
2023-01-22T13:58:48.250Z,50.26
2023-01-22T14:01:30.049Z,51.32
2023-01-22T14:04:02.604Z,52.41
2023-01-22T14:06:30.194Z,53.92
2023-01-22T14:08:58.130Z,54.15
2023-01-22T14:11:25.201Z,54.31
2023-01-22T14:13:53.474Z,55.29
2023-01-22T14:16:20.773Z,56.12
2023-01-22T14:18:47.750Z,57.52
2023-01-22T14:21:15.119Z,57.75
2023-01-22T14:23:42.915Z,58.83
2023-01-22T14:26:10.072Z,60.17
2023-01-22T14:28:37.265Z,60.84
2023-01-22T14:31:05.210Z,62.38
2023-01-22T14:33:34.353Z,63.08
2023-01-22T14:36:01.609Z,63.44
2023-01-22T14:38:28.753Z,63.72
2023-01-22T14:40:56.065Z,63.68
2023-01-22T14:43:23.440Z,63.79
2023-01-22T14:45:55.839Z,64.02
2023-01-22T14:48:23.232Z,64.53
2023-01-22T14:50:50.670Z,64.04
2023-01-22T14:53:25.162Z,64.40
2023-01-22T14:55:54.569Z,63.20
2023-01-22T14:58:21.639Z,63.67
2023-01-22T15:00:51.589Z,63.77
2023-01-22T15:03:18.684Z,64.20
2023-01-22T15:05:45.702Z,63.92
2023-01-22T15:08:12.756Z,64.43
2023-01-22T15:10:41.878Z,64.24
2023-01-22T15:13:08.818Z,64.57
2023-01-22T15:15:35.871Z,64.37
2023-01-22T15:18:03.069Z,64.47
2023-01-22T15:20:30.081Z,64.81
2023-01-22T15:22:57.116Z,65.36
2023-01-22T15:25:24.082Z,65.81
2023-01-22T15:27:51.035Z,66.08
2023-01-22T15:30:20.423Z,66.09
2023-01-22T15:32:47.680Z,66.40
2023-01-22T15:35:14.920Z,66.74
2023-01-22T15:37:42.061Z,66.95
2023-01-22T15:40:10.426Z,66.84
2023-01-22T15:42:37.611Z,67.66
2023-01-22T15:45:05.282Z,67.73
2023-01-22T15:47:32.745Z,67.94
2023-01-22T15:49:59.790Z,67.34
2023-01-22T15:52:26.935Z,67.73
2023-01-22T15:54:54.129Z,67.38
2023-01-22T15:57:21.220Z,67.49
2023-01-22T15:59:48.345Z,67.28
2023-01-22T16:02:19.805Z,68.37
2023-01-22T16:04:46.888Z,67.98
2023-01-22T16:07:13.883Z,68.00
2023-01-22T16:09:40.821Z,68.90
2023-01-22T16:12:09.212Z,68.79
2023-01-22T16:14:36.260Z,68.67
2023-01-22T16:17:03.402Z,68.27
2023-01-22T16:19:30.691Z,68.25
2023-01-22T16:22:03.650Z,68.80
2023-01-22T16:24:30.677Z,68.51
2023-01-22T16:26:57.694Z,69.04
2023-01-22T16:29:28.969Z,69.33
2023-01-22T16:31:56.254Z,69.85
2023-01-22T16:34:23.489Z,69.90
2023-01-22T16:36:50.574Z,69.78
2023-01-22T16:39:22.692Z,69.93
2023-01-22T16:41:51.310Z,69.53
2023-01-22T16:44:19.104Z,70.25
2023-01-22T16:46:49.675Z,70.59
2023-01-22T16:49:18.976Z,70.12
2023-01-22T16:51:48.534Z,70.29
2023-01-22T16:54:20.538Z,70.88
2023-01-22T16:56:48.238Z,70.78
2023-01-22T16:59:15.801Z,70.93
2023-01-22T17:01:42.904Z,70.49
2023-01-22T17:04:10.180Z,71.06
2023-01-22T17:06:48.791Z,71.59
2023-01-22T17:09:18.475Z,71.21
2023-01-22T17:11:52.348Z,71.09
2023-01-22T17:14:23.796Z,71.21
2023-01-22T17:16:51.269Z,70.70
2023-01-22T17:19:19.751Z,71.29
2023-01-22T17:21:47.261Z,71.06
2023-01-22T17:24:14.563Z,71.04
2023-01-22T17:26:42.332Z,71.53
2023-01-22T17:29:09.963Z,71.48
2023-01-22T17:31:37.754Z,71.03
2023-01-22T17:34:08.760Z,71.07
2023-01-22T17:36:35.914Z,69.49
2023-01-22T17:39:05.818Z,68.88
2023-01-22T17:41:32.994Z,68.72
2023-01-22T17:44:00.236Z,68.52
2023-01-22T17:46:29.964Z,68.68
2023-01-22T17:48:57.069Z,68.29
2023-01-22T17:51:28.784Z,69.01
2023-01-22T17:53:57.549Z,68.38
2023-01-22T17:56:27.168Z,69.35
2023-01-22T17:58:56.597Z,69.59
2023-01-22T18:01:25.753Z,70.49
2023-01-22T18:03:52.845Z,71.92
2023-01-22T18:06:20.001Z,72.05
2023-01-22T18:08:50.004Z,71.83
2023-01-22T18:11:20.569Z,72.22
2023-01-22T18:13:48.003Z,72.37
2023-01-22T18:16:16.600Z,72.35
2023-01-22T18:18:53.168Z,72.99
2023-01-22T18:21:23.313Z,73.31
2023-01-22T18:23:50.705Z,73.50
2023-01-22T18:26:22.947Z,73.79
2023-01-22T18:28:51.363Z,73.27
2023-01-22T18:31:21.584Z,73.96
2023-01-22T18:33:51.227Z,73.42
2023-01-22T18:36:22.085Z,73.50
2023-01-22T18:38:49.448Z,73.97
2023-01-22T18:41:19.877Z,74.41
2023-01-22T18:43:48.474Z,74.49
2023-01-22T18:46:15.506Z,74.44
2023-01-22T18:48:43.333Z,75.22
2023-01-22T18:51:13.558Z,75.49
2023-01-22T18:53:42.050Z,75.31
2023-01-22T18:56:13.391Z,75.63
2023-01-22T18:58:43.748Z,75.95
2023-01-22T19:01:14.654Z,76.11
2023-01-22T19:03:43.236Z,75.79
2023-01-22T19:06:16.378Z,75.25
2023-01-22T19:08:45.362Z,75.25
2023-01-22T19:11:13.807Z,75.68
2023-01-22T19:13:42.037Z,75.91
2023-01-22T19:16:11.324Z,75.93
2023-01-22T19:18:48.979Z,75.11
2023-01-22T19:21:19.608Z,75.69
2023-01-22T19:23:49.370Z,75.56
2023-01-22T19:26:22.391Z,75.46
2023-01-22T19:28:51.871Z,75.48
2023-01-22T19:31:22.399Z,76.06
2023-01-22T19:33:51.263Z,75.78
2023-01-22T19:36:31.580Z,75.33
2023-01-22T19:39:00.639Z,75.13
2023-01-22T19:41:28.385Z,75.62
2023-01-22T19:43:57.232Z,75.71
2023-01-22T19:46:26.303Z,75.59
2023-01-22T19:48:56.258Z,75.38
2023-01-22T19:51:24.977Z,75.16
2023-01-22T19:53:52.018Z,75.27
2023-01-22T19:56:21.892Z,75.11
2023-01-22T19:58:49.919Z,74.76
2023-01-22T20:01:17.645Z,75.08
2023-01-22T20:03:44.740Z,75.20
2023-01-22T20:06:15.203Z,74.87
2023-01-22T20:08:42.444Z,74.62
2023-01-22T20:11:10.930Z,74.09
2023-01-22T20:13:39.015Z,73.86
2023-01-22T20:16:07.030Z,74.50
2023-01-22T20:18:35.178Z,74.23
2023-01-22T20:21:06.823Z,73.75
2023-01-22T20:23:35.986Z,73.83
2023-01-22T20:26:07.749Z,73.60
2023-01-22T20:28:35.660Z,73.04
2023-01-22T20:31:04.910Z,73.30
2023-01-22T20:33:32.761Z,73.02
2023-01-22T20:36:20.688Z,73.38
2023-01-22T20:39:03.601Z,74.25
2023-01-22T20:42:01.113Z,74.38
2023-01-22T20:44:44.423Z,74.58
2023-01-22T20:50:14.361Z,74.43
2023-01-22T20:52:41.419Z,74.00
2023-01-22T20:55:10.172Z,74.87
2023-01-22T21:00:05.931Z,74.84
2023-01-22T21:02:33.014Z,74.68
2023-01-22T21:05:00.362Z,74.69
2023-01-22T21:07:27.338Z,75.01
2023-01-22T21:09:55.562Z,74.43
2023-01-22T21:12:22.659Z,74.45
2023-01-22T21:14:53.674Z,75.03
2023-01-22T21:17:23.904Z,74.94
2023-01-22T21:19:52.030Z,75.40
2023-01-22T21:22:19.137Z,75.29
2023-01-22T21:24:48.919Z,75.38
2023-01-22T21:27:15.961Z,75.08
2023-01-22T21:29:45.518Z,75.21
2023-01-22T21:32:12.591Z,75.53
2023-01-22T21:34:40.493Z,75.33
2023-01-22T21:37:09.828Z,75.62
2023-01-22T21:39:45.178Z,75.35
2023-01-22T21:42:31.727Z,75.04
2023-01-22T21:45:18.999Z,74.92
2023-01-22T21:47:45.856Z,73.68
2023-01-22T21:50:14.072Z,73.47
2023-01-22T21:52:42.954Z,72.62
2023-01-22T21:55:11.842Z,72.25
2023-01-22T21:57:38.895Z,71.56
2023-01-22T22:00:06.450Z,70.93
2023-01-22T22:02:33.580Z,69.81
2023-01-22T22:05:01.068Z,70.39
2023-01-22T22:07:28.023Z,70.00
2023-01-22T22:09:55.000Z,69.57
2023-01-22T22:12:22.155Z,68.63
2023-01-22T22:14:49.256Z,69.00
2023-01-22T22:17:17.046Z,68.67
2023-01-22T22:19:44.116Z,68.11
2023-01-22T22:22:11.143Z,67.80
2023-01-22T22:24:42.271Z,67.69
2023-01-22T22:27:09.432Z,68.29
2023-01-22T22:29:45.286Z,68.36
2023-01-22T22:32:12.439Z,68.51
2023-01-22T22:34:39.504Z,69.17
2023-01-22T22:37:06.659Z,69.27
2023-01-22T22:39:33.626Z,68.43
2023-01-22T22:42:00.646Z,69.04
2023-01-22T22:44:27.592Z,69.09
2023-01-22T22:46:54.580Z,68.28
2023-01-22T22:49:21.547Z,68.89
2023-01-22T22:51:48.657Z,69.15
2023-01-22T22:54:18.462Z,68.77
2023-01-22T22:56:48.965Z,69.05
2023-01-22T22:59:18.678Z,68.54
2023-01-22T23:01:45.723Z,68.99
2023-01-22T23:04:13.271Z,68.92
2023-01-22T23:06:45.408Z,68.71
2023-01-22T23:09:17.521Z,68.40
2023-01-22T23:11:44.581Z,68.10
2023-01-22T23:14:12.245Z,68.97
2023-01-22T23:16:41.714Z,69.04
2023-01-22T23:19:13.356Z,68.68
2023-01-22T23:21:41.814Z,68.29
2023-01-22T23:24:10.781Z,67.92
2023-01-22T23:26:38.862Z,67.80
2023-01-22T23:29:08.153Z,68.11
2023-01-22T23:31:36.486Z,68.25
2023-01-22T23:34:09.948Z,68.14
2023-01-22T23:36:37.103Z,68.20
2023-01-22T23:39:04.548Z,67.97
2023-01-22T23:41:31.627Z,68.35
2023-01-22T23:43:58.662Z,68.48
2023-01-22T23:46:27.540Z,68.17
2023-01-22T23:48:58.238Z,68.00
2023-01-22T23:51:26.144Z,68.04
2023-01-22T23:53:53.674Z,68.38
2023-01-22T23:56:26.379Z,68.57
2023-01-22T23:58:54.767Z,69.05
